Time;durP1;ratioP1;P1;durP2;ratioP2;P2;SDS_P1;SDS_P2;PMS_P1;PMS_P2;Temp;Humidity;BMP_temperature;BMP_pressure;BME280_temperature;BME280_humidity;BME280_pressure;Samples;Min_cycle;Max_cycle;Signal;HPM_P1;HPM_P2
2023/07/17 00:02:10;;;;;;;6.53;4.10;;;17.80;71.90;;;;;;4959991;28;20027;-79
2023/07/17 00:04:36;;;;;;;8.90;4.05;;;17.90;72.50;;;;;;4963326;28;20133;-78
2023/07/17 00:07:02;;;;;;;7.38;4.10;;;17.80;71.90;;;;;;4948325;28;20498;-78
2023/07/17 00:09:28;;;;;;;6.78;4.32;;;17.80;73.30;;;;;;4950597;28;20093;-78
2023/07/17 00:11:53;;;;;;;4.75;3.53;;;17.70;74.30;;;;;;4992790;28;20029;-78
2023/07/17 00:14:19;;;;;;;4.45;3.63;;;17.70;73.40;;;;;;4959889;28;20030;-78
2023/07/17 00:16:44;;;;;;;4.07;2.88;;;17.80;73.60;;;;;;4964143;28;20407;-78
2023/07/17 00:19:10;;;;;;;6.18;3.10;;;18.00;74.20;;;;;;4950332;28;20441;-78
2023/07/17 00:21:36;;;;;;;5.72;3.42;;;17.80;73.30;;;;;;4978393;28;20573;-78
2023/07/17 00:24:01;;;;;;;7.03;3.10;;;18.00;74.00;;;;;;4994677;28;20034;-78
2023/07/17 00:26:28;;;;;;;9.05;3.20;;;18.10;73.50;;;;;;4960114;28;20043;-78
2023/07/17 00:28:55;;;;;;;7.55;3.00;;;18.20;75.20;;;;;;4935860;28;20037;-78
2023/07/17 00:31:20;;;;;;;5.88;3.28;;;18.10;74.80;;;;;;4954150;28;20023;-78
2023/07/17 00:33:46;;;;;;;6.57;3.17;;;18.30;76.70;;;;;;4964678;28;20490;-78
2023/07/17 00:36:12;;;;;;;8.07;3.67;;;18.20;76.00;;;;;;4960537;28;20026;-78
2023/07/17 00:38:37;;;;;;;7.72;3.20;;;18.00;75.30;;;;;;4970739;28;20038;-78
2023/07/17 00:41:03;;;;;;;6.53;3.05;;;18.00;77.50;;;;;;4982170;28;20030;-78
2023/07/17 00:43:28;;;;;;;8.50;4.07;;;18.00;78.10;;;;;;4961645;28;20109;-78
2023/07/17 00:45:54;;;;;;;8.52;3.63;;;18.00;78.60;;;;;;4963460;28;20061;-78
2023/07/17 00:48:19;;;;;;;6.05;3.97;;;18.00;78.20;;;;;;4981359;28;20092;-78
2023/07/17 00:50:45;;;;;;;7.22;3.38;;;18.00;77.20;;;;;;4960136;28;20062;-78
2023/07/17 00:53:11;;;;;;;3.92;3.10;;;18.00;78.50;;;;;;4982070;28;20042;-78
2023/07/17 00:55:36;;;;;;;6.45;2.88;;;18.10;77.10;;;;;;4963252;28;20505;-78
2023/07/17 00:58:02;;;;;;;4.10;2.75;;;18.20;76.50;;;;;;4960944;28;20030;-78
2023/07/17 01:00:27;;;;;;;5.35;3.22;;;18.20;77.20;;;;;;4949007;28;20031;-79
2023/07/17 01:02:53;;;;;;;10.57;3.50;;;18.00;78.20;;;;;;4947972;28;20050;-79
2023/07/17 01:05:19;;;;;;;6.25;3.30;;;18.00;78.90;;;;;;4961677;28;20031;-80
2023/07/17 01:07:45;;;;;;;4.78;2.60;;;18.10;78.40;;;;;;4929741;28;20038;-80
2023/07/17 01:10:10;;;;;;;5.40;3.45;;;18.00;78.40;;;;;;4975359;28;20089;-79
2023/07/17 01:12:36;;;;;;;7.82;3.95;;;18.10;78.90;;;;;;4964865;28;20513;-80
2023/07/17 01:15:02;;;;;;;7.63;3.15;;;17.90;80.30;;;;;;4978692;28;20038;-79
2023/07/17 01:17:28;;;;;;;4.75;3.60;;;17.80;80.80;;;;;;4963079;28;20497;-79
2023/07/17 01:19:53;;;;;;;4.68;2.60;;;17.80;80.80;;;;;;4960036;28;20073;-79
2023/07/17 01:22:21;;;;;;;4.10;3.17;;;18.00;79.50;;;;;;4960619;28;20046;-79
2023/07/17 01:24:46;;;;;;;6.05;3.10;;;17.90;79.70;;;;;;4963295;28;20045;-79
2023/07/17 01:27:12;;;;;;;6.97;2.95;;;18.00;81.00;;;;;;4963920;28;20433;-80
2023/07/17 01:29:38;;;;;;;4.78;3.22;;;18.00;81.50;;;;;;4942215;28;20737;-79
2023/07/17 01:32:04;;;;;;;5.00;2.90;;;17.90;81.40;;;;;;4951762;28;20031;-80
2023/07/17 01:34:29;;;;;;;4.45;2.53;;;17.80;82.50;;;;;;4975202;28;20033;-80
2023/07/17 01:36:55;;;;;;;5.38;3.58;;;18.00;83.00;;;;;;4947721;28;20113;-79
2023/07/17 01:39:20;;;;;;;5.05;3.30;;;17.90;84.30;;;;;;4958882;28;20401;-79
2023/07/17 01:41:46;;;;;;;6.03;2.83;;;18.00;84.80;;;;;;4944804;28;20034;-80
2023/07/17 01:44:11;;;;;;;5.93;2.90;;;17.90;85.30;;;;;;4964061;28;20026;-79
2023/07/17 01:46:37;;;;;;;7.32;3.70;;;18.00;85.80;;;;;;4951040;28;20050;-79
2023/07/17 01:49:03;;;;;;;5.32;3.00;;;17.90;87.40;;;;;;4979236;28;20038;-79
2023/07/17 01:51:28;;;;;;;9.25;3.22;;;17.90;88.40;;;;;;4960787;28;20471;-79
2023/07/17 01:53:54;;;;;;;4.10;2.55;;;17.70;89.50;;;;;;4957969;28;20031;-79
2023/07/17 01:56:19;;;;;;;4.55;3.05;;;17.60;91.00;;;;;;4961050;28;20023;-79
2023/07/17 01:58:45;;;;;;;7.20;2.47;;;17.60;91.40;;;;;;4977613;28;20041;-79
2023/07/17 02:01:10;;;;;;;4.57;2.53;;;17.60;91.90;;;;;;4976068;28;20022;-79
2023/07/17 02:03:36;;;;;;;4.18;2.40;;;17.50;92.30;;;;;;4953285;28;20521;-79
2023/07/17 02:06:02;;;;;;;8.45;2.58;;;17.50;92.60;;;;;;4995797;28;20533;-79
2023/07/17 02:08:27;;;;;;;3.80;2.40;;;17.50;92.80;;;;;;4958788;28;20042;-79
2023/07/17 02:10:53;;;;;;;5.90;2.90;;;17.70;92.70;;;;;;4957172;28;20485;-79
2023/07/17 02:13:19;;;;;;;8.13;2.60;;;17.70;93.10;;;;;;4954038;28;20041;-79
2023/07/17 02:15:44;;;;;;;4.15;2.13;;;17.80;93.60;;;;;;4957604;28;20034;-79
2023/07/17 02:18:10;;;;;;;7.20;2.90;;;17.80;93.70;;;;;;4968508;28;20053;-79
2023/07/17 02:20:35;;;;;;;4.95;2.70;;;17.80;93.70;;;;;;4979302;28;20042;-79
2023/07/17 02:23:01;;;;;;;5.40;2.58;;;17.70;94.80;;;;;;4948971;28;20039;-79
2023/07/17 02:25:27;;;;;;;6.28;2.25;;;17.70;95.10;;;;;;4966459;28;20027;-79
2023/07/17 02:27:52;;;;;;;4.95;2.42;;;17.60;95.60;;;;;;4946814;28;20034;-78
2023/07/17 02:30:18;;;;;;;4.47;1.85;;;17.60;95.60;;;;;;4953609;28;20125;-78
2023/07/17 02:32:44;;;;;;;5.28;1.98;;;17.60;96.00;;;;;;4958573;28;20061;-78
2023/07/17 02:35:09;;;;;;;3.13;2.15;;;17.60;96.10;;;;;;4974219;28;20478;-78
2023/07/17 02:37:35;;;;;;;3.30;2.03;;;17.60;96.00;;;;;;4964360;28;20045;-78
2023/07/17 02:40:01;;;;;;;5.55;2.03;;;17.60;97.00;;;;;;4961442;28;20037;-78
2023/07/17 02:42:26;;;;;;;2.55;1.88;;;17.50;97.10;;;;;;4954822;28;20030;-76
2023/07/17 02:44:52;;;;;;;2.15;1.30;;;17.40;97.00;;;;;;4986306;28;20038;-76
2023/07/17 02:47:17;;;;;;;5.00;2.42;;;17.40;97.40;;;;;;4951980;28;20113;-76
2023/07/17 02:49:43;;;;;;;4.13;2.25;;;17.30;97.70;;;;;;4963760;28;20039;-76
2023/07/17 02:52:09;;;;;;;4.40;1.98;;;17.40;97.40;;;;;;4995464;28;20069;-76
2023/07/17 02:54:38;;;;;;;4.40;2.05;;;17.40;97.50;;;;;;4948994;28;20828;-75
2023/07/17 02:57:04;;;;;;;3.25;1.83;;;17.40;98.00;;;;;;4932114;28;20085;-76
2023/07/17 02:59:30;;;;;;;4.85;2.28;;;17.30;97.90;;;;;;4962865;28;20038;-76
2023/07/17 03:01:55;;;;;;;3.75;1.73;;;17.30;98.70;;;;;;4967987;28;20114;-76
2023/07/17 03:04:21;;;;;;;3.63;2.20;;;17.30;98.00;;;;;;4946055;28;20027;-75
2023/07/17 03:06:48;;;;;;;3.28;1.23;;;17.30;98.00;;;;;;4958194;28;20438;-76
2023/07/17 03:09:13;;;;;;;4.50;2.08;;;17.20;98.60;;;;;;4978377;28;20121;-76
2023/07/17 03:11:39;;;;;;;4.53;1.90;;;17.30;98.40;;;;;;4960076;28;20165;-76
2023/07/17 03:14:04;;;;;;;2.28;1.55;;;17.30;98.30;;;;;;4974327;28;20027;-76
2023/07/17 03:16:30;;;;;;;3.33;1.60;;;17.30;98.10;;;;;;4961731;28;20061;-76
2023/07/17 03:18:55;;;;;;;4.72;1.65;;;17.30;98.30;;;;;;4980199;28;20034;-76
2023/07/17 03:21:22;;;;;;;3.95;1.58;;;17.20;98.80;;;;;;4940908;28;20125;-77
2023/07/17 03:23:48;;;;;;;4.72;1.52;;;17.20;99.00;;;;;;4966334;28;20437;-76
2023/07/17 03:26:14;;;;;;;2.58;1.58;;;17.20;98.80;;;;;;4948055;28;20023;-76
2023/07/17 03:28:39;;;;;;;3.08;1.52;;;17.20;98.70;;;;;;4947069;28;20034;-76
2023/07/17 03:31:05;;;;;;;3.50;1.88;;;17.20;99.00;;;;;;4980986;28;20401;-76
2023/07/17 03:33:32;;;;;;;2.83;1.70;;;17.10;99.30;;;;;;4958441;28;20047;-76
2023/07/17 03:35:58;;;;;;;3.13;1.60;;;17.10;99.90;;;;;;4957790;28;20568;-76
2023/07/17 03:38:24;;;;;;;2.60;1.33;;;17.00;99.60;;;;;;4966631;28;20105;-76
2023/07/17 03:40:49;;;;;;;3.75;1.70;;;17.00;99.70;;;;;;4978105;28;20034;-76
2023/07/17 03:43:15;;;;;;;3.20;1.67;;;17.00;99.90;;;;;;4963888;28;20445;-75
2023/07/17 03:45:40;;;;;;;4.63;1.65;;;16.90;99.90;;;;;;4978824;28;20046;-76
2023/07/17 03:48:06;;;;;;;3.75;1.50;;;16.90;99.90;;;;;;4947428;28;20489;-75
2023/07/17 03:50:32;;;;;;;3.25;1.63;;;16.90;99.90;;;;;;4959863;28;20454;-76
2023/07/17 03:52:58;;;;;;;3.53;1.70;;;16.90;99.90;;;;;;4976914;28;20074;-76
2023/07/17 03:55:23;;;;;;;2.53;1.50;;;16.80;99.90;;;;;;4957858;28;20026;-76
2023/07/17 03:57:49;;;;;;;2.40;1.42;;;16.80;99.90;;;;;;4942950;28;20035;-76
2023/07/17 04:00:14;;;;;;;2.47;1.55;;;16.80;99.90;;;;;;4957682;28;20034;-77
2023/07/17 04:02:43;;;;;;;4.38;1.48;;;16.70;99.90;;;;;;4956710;28;20439;-76
2023/07/17 04:05:10;;;;;;;2.80;1.80;;;16.70;99.90;;;;;;4965917;28;20034;-76
2023/07/17 04:07:35;;;;;;;2.42;1.40;;;16.60;99.90;;;;;;4972524;28;20498;-77
2023/07/17 04:10:01;;;;;;;3.17;1.63;;;16.70;99.90;;;;;;4968121;28;20078;-76
2023/07/17 04:12:27;;;;;;;2.70;1.35;;;16.70;99.90;;;;;;4948892;28;20046;-76
2023/07/17 04:14:52;;;;;;;2.35;1.50;;;16.70;99.90;;;;;;4951000;28;20042;-77
2023/07/17 04:17:18;;;;;;;3.03;1.85;;;16.60;99.90;;;;;;4958247;28;20039;-78
2023/07/17 04:19:44;;;;;;;3.13;1.30;;;16.60;99.90;;;;;;4963390;28;20042;-79
2023/07/17 04:22:09;;;;;;;4.65;1.70;;;16.60;99.90;;;;;;4965230;28;20034;-79
2023/07/17 04:24:35;;;;;;;3.00;1.80;;;16.70;99.90;;;;;;4958578;28;20031;-79
2023/07/17 04:27:01;;;;;;;4.90;1.83;;;16.70;99.90;;;;;;4982241;28;20391;-79
2023/07/17 04:29:26;;;;;;;3.70;1.98;;;16.70;99.90;;;;;;4965489;28;20035;-79
2023/07/17 04:31:52;;;;;;;4.57;2.10;;;16.70;99.90;;;;;;4982982;28;20085;-78
2023/07/17 04:34:17;;;;;;;5.13;2.55;;;16.80;99.90;;;;;;4954815;28;20031;-77
2023/07/17 04:36:43;;;;;;;4.30;1.77;;;16.70;99.90;;;;;;4961152;28;20027;-78
2023/07/17 04:39:08;;;;;;;4.03;1.70;;;16.80;99.90;;;;;;4964894;28;20409;-78
2023/07/17 04:41:34;;;;;;;8.20;2.08;;;16.80;99.90;;;;;;4967043;28;20117;-78
2023/07/17 04:44:00;;;;;;;6.53;2.38;;;16.90;99.90;;;;;;4958950;28;20076;-77
2023/07/17 04:46:25;;;;;;;3.28;2.17;;;16.90;99.90;;;;;;4946244;28;20054;-77
2023/07/17 04:48:51;;;;;;;4.00;2.13;;;17.00;99.90;;;;;;4960853;28;20042;-77
2023/07/17 04:51:16;;;;;;;5.85;2.05;;;17.10;99.90;;;;;;4960070;28;20038;-77
2023/07/17 04:53:42;;;;;;;3.83;1.55;;;17.10;99.90;;;;;;4965158;28;20132;-77
2023/07/17 04:56:07;;;;;;;3.58;2.08;;;17.20;99.90;;;;;;4947547;28;20057;-78
2023/07/17 04:58:33;;;;;;;2.75;1.30;;;17.20;99.90;;;;;;4979341;28;20030;-78
2023/07/17 05:01:02;;;;;;;4.00;1.83;;;17.30;99.90;;;;;;4964052;28;20049;-78
2023/07/17 05:03:27;;;;;;;5.25;2.30;;;17.40;99.90;;;;;;4963955;28;20037;-77
2023/07/17 05:05:53;;;;;;;3.67;1.70;;;17.50;99.90;;;;;;4963663;28;20031;-77
2023/07/17 05:08:19;;;;;;;5.47;1.92;;;17.60;99.90;;;;;;4973711;28;20065;-77
2023/07/17 05:11:00;;;;;;;4.53;2.00;;;17.80;99.90;;;;;;4964640;28;20125;-77
2023/07/17 05:13:26;;;;;;;5.40;2.40;;;17.40;99.90;;;;;;4973306;28;20037;-77
2023/07/17 05:15:52;;;;;;;3.00;1.60;;;17.60;99.90;;;;;;4950762;28;20980;-78
2023/07/17 05:18:18;;;;;;;5.28;1.60;;;17.80;99.90;;;;;;4966113;28;20174;-78
2023/07/17 05:20:44;;;;;;;4.72;1.88;;;17.80;99.90;;;;;;4950976;28;20031;-77
2023/07/17 05:23:10;;;;;;;4.45;1.65;;;17.90;99.90;;;;;;4950325;28;20286;-78
2023/07/17 05:25:36;;;;;;;3.50;2.17;;;17.90;99.90;;;;;;4971848;28;20664;-77
2023/07/17 05:28:02;;;;;;;4.30;1.98;;;17.90;99.90;;;;;;4968678;28;20030;-77
2023/07/17 05:30:27;;;;;;;4.75;1.95;;;18.00;99.90;;;;;;4972973;28;20045;-77
2023/07/17 05:32:53;;;;;;;5.22;1.95;;;18.10;99.90;;;;;;4961734;28;20034;-78
2023/07/17 05:35:18;;;;;;;6.15;2.40;;;18.30;99.90;;;;;;4965745;28;20034;-78
2023/07/17 05:37:44;;;;;;;4.47;1.65;;;18.40;99.90;;;;;;4945465;28;20697;-78
2023/07/17 05:40:10;;;;;;;5.53;2.22;;;18.90;99.90;;;;;;4967666;28;20026;-78
2023/07/17 05:42:36;;;;;;;4.45;1.83;;;18.50;98.90;;;;;;4961323;28;20034;-78
2023/07/17 05:45:03;;;;;;;4.00;1.88;;;18.80;98.90;;;;;;4945824;28;20506;-77
2023/07/17 05:47:29;;;;;;;4.20;2.10;;;19.10;98.50;;;;;;4945012;28;20143;-77
2023/07/17 05:49:54;;;;;;;19.15;3.33;;;19.10;97.80;;;;;;4948208;28;20527;-77
2023/07/17 05:52:20;;;;;;;6.47;2.90;;;19.40;97.60;;;;;;4964180;28;20039;-77
2023/07/17 05:54:45;;;;;;;4.75;2.08;;;19.40;97.70;;;;;;4960118;28;20026;-77
2023/07/17 05:57:11;;;;;;;7.13;2.60;;;19.70;97.20;;;;;;4971858;28;20038;-77
2023/07/17 05:59:36;;;;;;;6.82;2.47;;;19.80;97.30;;;;;;4959676;28;20089;-77
2023/07/17 06:02:07;;;;;;;6.28;2.38;;;19.80;97.00;;;;;;4981941;28;20030;-78
2023/07/17 06:04:33;;;;;;;5.05;2.50;;;20.10;96.40;;;;;;4968565;28;20106;-77
2023/07/17 06:06:58;;;;;;;5.32;2.35;;;20.40;95.50;;;;;;4980804;28;20207;-78
2023/07/17 06:09:24;;;;;;;4.72;2.70;;;20.30;95.40;;;;;;4971403;28;20064;-77
2023/07/17 06:11:50;;;;;;;4.78;2.75;;;20.60;97.50;;;;;;4950581;28;20035;-77
2023/07/17 06:14:15;;;;;;;6.35;2.60;;;20.60;95.90;;;;;;4966927;28;20603;-77
2023/07/17 06:16:41;;;;;;;6.72;3.08;;;20.80;94.70;;;;;;4958314;28;20106;-77
2023/07/17 06:19:06;;;;;;;5.00;2.83;;;20.80;96.00;;;;;;4962445;28;20023;-78
2023/07/17 06:21:32;;;;;;;4.50;2.55;;;20.80;95.00;;;;;;4964376;28;20065;-77
2023/07/17 06:23:57;;;;;;;5.20;2.13;;;20.80;94.10;;;;;;4959000;28;20124;-77
2023/07/17 06:26:23;;;;;;;9.98;4.07;;;21.00;92.80;;;;;;4963574;28;20030;-78
2023/07/17 06:28:50;;;;;;;7.22;2.47;;;21.10;94.80;;;;;;4961096;28;20026;-77
2023/07/17 06:31:16;;;;;;;6.70;1.85;;;20.90;92.90;;;;;;4976370;28;20038;-77
2023/07/17 06:33:41;;;;;;;7.07;2.97;;;21.10;92.40;;;;;;4951730;28;20030;-78
2023/07/17 06:36:07;;;;;;;9.25;4.18;;;21.30;94.30;;;;;;4961591;28;20039;-77
2023/07/17 06:38:32;;;;;;;4.38;2.63;;;21.20;93.60;;;;;;4979016;28;20037;-78
2023/07/17 06:40:58;;;;;;;6.20;3.45;;;21.60;92.70;;;;;;4962711;28;20030;-78
2023/07/17 06:43:24;;;;;;;9.98;4.57;;;21.70;91.80;;;;;;4939643;28;20039;-78
2023/07/17 06:45:49;;;;;;;9.48;3.88;;;22.00;93.20;;;;;;4957375;28;20070;-78
2023/07/17 06:48:15;;;;;;;8.60;4.20;;;22.20;92.40;;;;;;4947854;28;20045;-77
2023/07/17 06:50:40;;;;;;;5.97;3.08;;;22.00;90.40;;;;;;4947881;28;20062;-78
2023/07/17 06:53:06;;;;;;;8.80;4.25;;;22.00;90.00;;;;;;4940943;28;20098;-78
2023/07/17 06:55:32;;;;;;;8.60;4.30;;;22.30;91.10;;;;;;4949230;28;20038;-77
2023/07/17 06:57:58;;;;;;;6.45;3.80;;;22.30;89.70;;;;;;4972811;28;20134;-78
2023/07/17 07:00:23;;;;;;;8.65;4.05;;;22.00;88.10;;;;;;4953292;28;20133;-78
2023/07/17 07:02:49;;;;;;;8.07;4.07;;;22.20;87.30;;;;;;4941042;28;21491;-78
2023/07/17 07:05:14;;;;;;;9.55;4.00;;;22.20;85.90;;;;;;4968811;28;20109;-77
2023/07/17 07:07:40;;;;;;;6.35;3.50;;;22.70;85.40;;;;;;4950069;28;20035;-78
2023/07/17 07:10:06;;;;;;;9.27;4.07;;;22.30;83.90;;;;;;4947973;28;20038;-78
2023/07/17 07:12:32;;;;;;;9.60;4.50;;;22.30;82.60;;;;;;4965790;28;20030;-78
2023/07/17 07:14:58;;;;;;;8.20;3.55;;;22.30;83.90;;;;;;4952059;28;20106;-77
2023/07/17 07:17:23;;;;;;;7.40;3.72;;;22.70;84.60;;;;;;4956033;28;20121;-78
2023/07/17 07:19:51;;;;;;;8.73;4.53;;;22.90;81.70;;;;;;4962555;28;20405;-78
2023/07/17 07:22:16;;;;;;;6.90;4.13;;;23.20;82.20;;;;;;4957573;28;20433;-78
2023/07/17 07:24:45;;;;;;;9.65;2.60;;;23.00;81.10;;;;;;4961494;28;20098;-78
2023/07/17 07:27:10;;;;;;;6.25;4.22;;;23.30;81.50;;;;;;4955672;28;20030;-78
2023/07/17 07:29:36;;;;;;;8.15;4.07;;;23.10;80.80;;;;;;4963525;28;20049;-78
2023/07/17 07:32:02;;;;;;;6.57;3.33;;;23.30;80.70;;;;;;4951343;28;20030;-78
2023/07/17 07:34:28;;;;;;;8.10;4.00;;;23.80;79.70;;;;;;4953905;28;20089;-78
2023/07/17 07:36:53;;;;;;;12.20;4.35;;;23.50;78.80;;;;;;4972754;28;20050;-78
2023/07/17 07:39:19;;;;;;;4.45;2.05;;;23.70;80.70;;;;;;4950538;28;20033;-77
2023/07/17 07:41:45;;;;;;;9.07;3.97;;;23.50;77.20;;;;;;4966468;28;20058;-78
2023/07/17 07:44:11;;;;;;;5.93;3.13;;;23.70;80.70;;;;;;4948444;28;20053;-78
2023/07/17 07:46:36;;;;;;;4.93;3.45;;;23.70;77.10;;;;;;4970324;28;20102;-77
2023/07/17 07:49:03;;;;;;;9.00;3.75;;;23.50;78.90;;;;;;4966640;28;20058;-77
2023/07/17 07:51:28;;;;;;;7.50;1.88;;;23.70;79.20;;;;;;4972491;28;20078;-78
2023/07/17 07:53:54;;;;;;;5.93;3.17;;;23.70;76.80;;;;;;4978165;28;20062;-78
2023/07/17 07:56:20;;;;;;;10.65;2.63;;;23.60;77.60;;;;;;4980128;28;20492;-77
2023/07/17 07:58:45;;;;;;;7.80;3.30;;;23.80;76.00;;;;;;4971917;28;20512;-77
2023/07/17 08:01:11;;;;;;;7.75;3.67;;;23.40;75.20;;;;;;4980624;28;20030;-77
2023/07/17 08:03:38;;;;;;;9.10;3.53;;;23.80;75.10;;;;;;4965399;28;20101;-77
2023/07/17 08:06:03;;;;;;;6.63;3.60;;;24.30;76.10;;;;;;4982598;28;20034;-78
2023/07/17 08:08:29;;;;;;;6.70;3.60;;;24.10;72.80;;;;;;4962176;28;20036;-79
2023/07/17 08:10:54;;;;;;;8.20;3.92;;;24.50;75.60;;;;;;4968348;28;20513;-78
2023/07/17 08:13:20;;;;;;;5.43;3.60;;;25.10;75.30;;;;;;4979851;28;20489;-78
2023/07/17 08:15:46;;;;;;;9.07;4.60;;;25.70;75.00;;;;;;4965685;28;20038;-78
2023/07/17 08:18:12;;;;;;;7.63;3.65;;;25.50;71.20;;;;;;4965435;28;20030;-78
2023/07/17 08:20:38;;;;;;;6.82;3.63;;;25.70;73.60;;;;;;4983433;28;20041;-79
2023/07/17 08:23:03;;;;;;;6.47;3.65;;;25.70;71.80;;;;;;4982726;28;20038;-78
2023/07/17 08:25:29;;;;;;;9.48;3.63;;;26.00;73.00;;;;;;4970485;28;20034;-78
2023/07/17 08:27:54;;;;;;;4.80;2.85;;;26.00;71.40;;;;;;4963060;28;20030;-78
2023/07/17 08:30:20;;;;;;;4.38;1.83;;;25.70;69.70;;;;;;4967293;28;20034;-78
2023/07/17 08:32:46;;;;;;;8.15;3.17;;;25.80;68.20;;;;;;4954439;28;20195;-78
2023/07/17 08:35:11;;;;;;;5.40;3.13;;;25.70;66.70;;;;;;4945334;28;20069;-78
2023/07/17 08:37:37;;;;;;;4.88;2.17;;;25.60;66.50;;;;;;4964589;28;20066;-79
2023/07/17 08:40:04;;;;;;;7.60;3.17;;;25.80;65.90;;;;;;4967248;28;20113;-78
2023/07/17 08:42:29;;;;;;;8.82;3.90;;;25.80;66.90;;;;;;4957835;28;20121;-79
2023/07/17 08:44:55;;;;;;;7.93;2.92;;;25.90;64.50;;;;;;4984247;28;20459;-78
2023/07/17 08:47:21;;;;;;;3.58;2.38;;;25.70;64.00;;;;;;4979972;28;20026;-78
2023/07/17 08:49:46;;;;;;;5.72;3.20;;;25.90;64.10;;;;;;4962287;28;20034;-78
2023/07/17 08:52:12;;;;;;;4.55;2.83;;;26.20;65.80;;;;;;4960993;28;20038;-78
2023/07/17 08:54:38;;;;;;;4.93;3.45;;;26.40;64.10;;;;;;4963246;28;20030;-78
2023/07/17 08:57:04;;;;;;;5.45;2.88;;;26.50;64.20;;;;;;4989794;28;20545;-78
2023/07/17 08:59:30;;;;;;;5.70;3.33;;;27.10;65.00;;;;;;4966194;28;20102;-78
2023/07/17 09:01:56;;;;;;;6.43;3.25;;;27.00;65.00;;;;;;4963583;28;20585;-78
2023/07/17 09:04:22;;;;;;;6.68;4.22;;;26.90;63.30;;;;;;4954378;28;20035;-78
2023/07/17 09:06:50;;;;;;;6.47;3.35;;;27.20;64.40;;;;;;4955898;28;20442;-77
2023/07/17 09:09:15;;;;;;;6.72;3.20;;;27.30;62.50;;;;;;4952472;28;20165;-78
2023/07/17 09:11:41;;;;;;;5.25;3.00;;;27.20;62.00;;;;;;4981972;28;20469;-78
2023/07/17 09:14:07;;;;;;;7.53;3.78;;;26.90;61.20;;;;;;4967018;28;20027;-77
2023/07/17 09:16:33;;;;;;;5.07;3.22;;;27.10;62.00;;;;;;4964982;28;20482;-78
2023/07/17 09:19:00;;;;;;;4.18;2.75;;;27.00;61.10;;;;;;4958687;28;20026;-78
2023/07/17 09:21:26;;;;;;;4.65;2.92;;;26.90;59.60;;;;;;4958554;28;20030;-77
2023/07/17 09:23:53;;;;;;;5.20;2.90;;;27.00;58.70;;;;;;4967071;28;20572;-78
2023/07/17 09:26:19;;;;;;;5.38;2.92;;;27.20;59.30;;;;;;4981489;28;20506;-78
2023/07/17 09:29:02;;;;;;;7.63;3.03;;;27.40;58.50;;;;;;4970226;28;20031;-77
2023/07/17 09:31:29;;;;;;;4.75;2.75;;;27.60;59.20;;;;;;4976663;28;20124;-78
2023/07/17 09:33:59;;;;;;;3.70;1.95;;;27.80;58.50;;;;;;4949701;28;20413;-78
2023/07/17 09:36:25;;;;;;;3.17;2.22;;;27.90;58.30;;;;;;4965295;28;20034;-77
2023/07/17 09:38:54;;;;;;;5.05;2.60;;;27.90;57.40;;;;;;4948845;28;20822;-78
2023/07/17 09:41:24;;;;;;;4.13;2.58;;;28.20;57.50;;;;;;4972841;28;20044;-78
2023/07/17 09:44:03;;;;;;;4.95;2.72;;;27.70;56.40;;;;;;4962642;28;20027;-78
2023/07/17 09:46:30;;;;;;;4.53;2.38;;;28.20;57.20;;;;;;4958192;28;20030;-77
2023/07/17 09:48:56;;;;;;;3.80;2.25;;;28.00;55.70;;;;;;4955496;28;20081;-77
2023/07/17 09:51:22;;;;;;;4.57;3.33;;;28.80;57.10;;;;;;4961770;28;20034;-78
2023/07/17 09:53:47;;;;;;;3.95;2.42;;;29.10;57.40;;;;;;4963771;28;20043;-78
2023/07/17 09:56:18;;;;;;;5.50;2.78;;;29.30;56.90;;;;;;4940273;28;20174;-79
2023/07/17 09:58:47;;;;;;;4.50;2.80;;;29.50;56.50;;;;;;4958812;28;20042;-79
2023/07/17 10:01:25;;;;;;;5.18;2.00;;;29.60;54.50;;;;;;4963148;28;20110;-79
2023/07/17 10:03:50;;;;;;;5.30;2.17;;;29.10;53.70;;;;;;4964180;28;20037;-79
2023/07/17 10:06:19;;;;;;;4.35;2.10;;;29.20;55.60;;;;;;4963199;28;20059;-79
2023/07/17 10:08:54;;;;;;;2.63;1.90;;;29.10;54.10;;;;;;4966291;28;20038;-80
2023/07/17 10:11:20;;;;;;;2.58;1.92;;;29.40;54.20;;;;;;4957980;28;20038;-78
2023/07/17 10:13:48;;;;;;;3.22;2.10;;;29.30;53.90;;;;;;4962831;28;20121;-79
2023/07/17 10:16:17;;;;;;;3.72;1.65;;;29.70;53.80;;;;;;4951002;28;20034;-80
2023/07/17 10:18:59;;;;;;;3.83;2.40;;;30.00;52.30;;;;;;4945621;28;20060;-79
2023/07/17 10:21:24;;;;;;;2.42;1.90;;;30.00;52.80;;;;;;4960843;28;20057;-80
2023/07/17 10:23:50;;;;;;;4.20;1.90;;;30.00;52.60;;;;;;4966836;28;20228;-79
2023/07/17 10:26:20;;;;;;;6.30;2.50;;;29.60;51.70;;;;;;4960342;28;20093;-80
2023/07/17 10:28:49;;;;;;;3.42;1.75;;;29.90;53.50;;;;;;4961920;28;20091;-80
2023/07/17 10:31:19;;;;;;;5.28;3.08;;;30.40;52.10;;;;;;4974125;28;20069;-79
2023/07/17 10:33:52;;;;;;;4.07;2.40;;;30.80;52.30;;;;;;4975599;28;20039;-80
2023/07/17 10:36:18;;;;;;;5.85;2.92;;;31.10;51.20;;;;;;4946734;28;20094;-80
2023/07/17 10:38:53;;;;;;;4.63;2.28;;;30.90;51.50;;;;;;4937212;28;20515;-80
2023/07/17 10:41:19;;;;;;;2.30;1.77;;;31.00;51.20;;;;;;4942466;28;20109;-80
2023/07/17 10:43:58;;;;;;;4.65;2.25;;;30.60;51.30;;;;;;4979491;28;20042;-80
2023/07/17 10:46:31;;;;;;;5.70;2.50;;;30.20;51.70;;;;;;4949346;28;20042;-80
2023/07/17 10:49:11;;;;;;;6.82;2.63;;;29.90;50.30;;;;;;4965961;28;20053;-79
2023/07/17 10:51:37;;;;;;;3.45;2.35;;;30.40;52.30;;;;;;4956959;28;20490;-80
2023/07/17 10:54:03;;;;;;;6.43;2.58;;;30.50;50.30;;;;;;4961718;28;20101;-81
2023/07/17 10:56:31;;;;;;;4.03;2.20;;;30.80;49.70;;;;;;4961403;28;20030;-79
2023/07/17 10:58:57;;;;;;;5.50;2.45;;;30.80;49.90;;;;;;4950020;28;20498;-80
2023/07/17 11:01:23;;;;;;;4.93;2.47;;;30.70;50.20;;;;;;4960602;28;20118;-80
2023/07/17 11:03:48;;;;;;;8.45;3.03;;;31.00;51.10;;;;;;4961216;28;20401;-79
2023/07/17 11:06:17;;;;;;;4.35;2.72;;;31.30;50.10;;;;;;4972576;28;20101;-80
2023/07/17 11:08:47;;;;;;;3.70;2.65;;;31.20;50.00;;;;;;4959602;28;20038;-80
2023/07/17 11:11:12;;;;;;;3.00;2.35;;;31.00;49.30;;;;;;4959998;28;20514;-80
2023/07/17 11:13:38;;;;;;;7.32;3.40;;;30.40;50.10;;;;;;4989192;28;20038;-80
2023/07/17 11:16:10;;;;;;;5.88;2.97;;;30.30;50.60;;;;;;4976382;28;20022;-80
2023/07/17 11:18:55;;;;;;;4.07;2.63;;;30.30;50.00;;;;;;4966428;28;20121;-79
2023/07/17 11:21:22;;;;;;;5.75;2.85;;;30.40;50.20;;;;;;4990349;28;20509;-80
2023/07/17 11:23:49;;;;;;;6.55;3.45;;;30.40;50.60;;;;;;4973599;28;20037;-80
2023/07/17 11:26:16;;;;;;;5.82;2.90;;;30.60;50.60;;;;;;4960178;28;20030;-79
2023/07/17 11:28:42;;;;;;;4.85;2.42;;;30.40;51.90;;;;;;4961783;28;20538;-76
2023/07/17 11:31:20;;;;;;;4.88;2.08;;;30.00;50.40;;;;;;4960128;28;20169;-76
2023/07/17 11:34:11;;;;;;;4.32;3.05;;;30.10;51.00;;;;;;4960147;28;20540;-77
2023/07/17 11:36:41;;;;;;;4.93;2.47;;;29.90;49.60;;;;;;4929471;28;20039;-76
2023/07/17 11:39:13;;;;;;;7.30;3.67;;;29.80;50.10;;;;;;4940256;28;20031;-76
2023/07/17 11:41:42;;;;;;;7.63;3.30;;;30.20;50.20;;;;;;4943528;28;20039;-75
2023/07/17 11:44:07;;;;;;;7.22;3.35;;;30.50;50.00;;;;;;4649738;28;10000030;-75
2023/07/17 11:46:33;;;;;;;6.05;2.83;;;30.60;49.70;;;;;;4959808;28;20039;-76
2023/07/17 11:48:59;;;;;;;6.10;3.72;;;30.50;49.80;;;;;;4978507;28;20066;-75
2023/07/17 11:51:25;;;;;;;6.43;2.35;;;30.60;49.20;;;;;;4950785;28;20046;-76
2023/07/17 11:53:54;;;;;;;7.40;3.40;;;30.50;50.00;;;;;;4959623;28;20050;-76
2023/07/17 11:56:21;;;;;;;6.00;2.93;;;30.70;48.90;;;;;;4630463;28;10000426;-75
2023/07/17 11:58:52;;;;;;;9.52;4.03;;;30.80;49.10;;;;;;4962088;28;20038;-75
2023/07/17 12:01:19;;;;;;;4.10;2.05;;;31.10;48.30;;;;;;4976034;28;20742;-75
2023/07/17 12:03:45;;;;;;;6.45;3.30;;;31.20;48.10;;;;;;4958316;28;20039;-75
2023/07/17 12:06:10;;;;;;;4.32;1.95;;;31.50;48.40;;;;;;4957912;28;20370;-75
2023/07/17 12:08:37;;;;;;;2.53;1.85;;;31.40;47.40;;;;;;4954822;28;20035;-75
2023/07/17 12:11:03;;;;;;;4.30;2.33;;;31.70;47.30;;;;;;4975693;28;20121;-76
2023/07/17 12:13:29;;;;;;;7.22;2.78;;;31.70;46.70;;;;;;4970428;28;20125;-76
2023/07/17 12:15:54;;;;;;;7.35;2.70;;;31.80;47.00;;;;;;4964131;28;20083;-76
2023/07/17 12:18:20;;;;;;;5.85;3.28;;;31.70;47.30;;;;;;4963676;28;20058;-75
2023/07/17 12:20:45;;;;;;;6.28;3.55;;;31.50;46.70;;;;;;4957656;28;20039;-75
2023/07/17 12:23:11;;;;;;;6.32;2.55;;;30.80;48.10;;;;;;4963879;28;20034;-75
2023/07/17 12:25:41;;;;;;;6.78;2.85;;;31.40;47.50;;;;;;4952322;28;20062;-76
2023/07/17 12:28:07;;;;;;;6.40;3.38;;;31.20;47.00;;;;;;4968198;28;20121;-76
2023/07/17 12:30:32;;;;;;;2.33;1.52;;;31.40;47.40;;;;;;4972741;28;20121;-75
2023/07/17 12:32:58;;;;;;;4.35;2.95;;;31.40;47.00;;;;;;4957903;28;20467;-75
2023/07/17 12:35:24;;;;;;;4.82;2.30;;;31.30;47.60;;;;;;4982593;28;20058;-75
2023/07/17 12:37:49;;;;;;;4.03;2.25;;;31.20;46.70;;;;;;4964983;28;20461;-75
2023/07/17 12:40:15;;;;;;;3.90;2.47;;;31.40;46.90;;;;;;4967154;28;20038;-75
2023/07/17 12:42:40;;;;;;;4.35;1.83;;;31.40;46.30;;;;;;4965593;28;20042;-75